createdAt,value
2016-11-28T00:00:59.300Z,19.8
2016-11-28T00:01:59.679Z,19.6
2016-11-28T00:03:00.058Z,19.6
2016-11-28T00:04:00.427Z,19.7
2016-11-28T00:05:00.791Z,19.6
2016-11-28T00:06:01.256Z,19.7
2016-11-28T00:07:01.623Z,19.8
2016-11-28T00:08:02.001Z,19.8
2016-11-28T00:09:02.382Z,19.8
2016-11-28T00:10:02.753Z,19.8
2016-11-28T00:11:03.131Z,19.8
2016-11-28T00:12:03.497Z,19.8
2016-11-28T00:13:03.864Z,19.8
2016-11-28T00:14:04.233Z,19.8
2016-11-28T00:15:04.593Z,19.7
2016-11-28T00:16:04.964Z,19.7
2016-11-28T00:17:05.340Z,19.6
2016-11-28T00:18:05.710Z,19.7
2016-11-28T00:19:06.079Z,19.6
2016-11-28T00:20:06.443Z,19.7
2016-11-28T00:21:06.813Z,19.7
2016-11-28T00:22:07.177Z,19.7
2016-11-28T00:23:07.550Z,19.7
2016-11-28T00:24:07.932Z,19.7
2016-11-28T00:25:08.312Z,19.7
2016-11-28T00:26:08.690Z,19.7
2016-11-28T00:27:09.088Z,19.7
2016-11-28T00:28:09.454Z,19.7
2016-11-28T00:29:09.816Z,19.7
2016-11-28T00:30:10.192Z,19.6
2016-11-28T00:31:10.877Z,19.6
2016-11-28T00:32:11.245Z,19.6
2016-11-28T00:33:11.618Z,19.6
2016-11-28T00:34:11.983Z,19.6
2016-11-28T00:35:12.344Z,19.6
2016-11-28T00:36:12.824Z,19.6
2016-11-28T00:37:13.199Z,19.7
2016-11-28T00:38:13.583Z,19.8
2016-11-28T00:39:13.957Z,19.7
2016-11-28T00:40:14.327Z,19.7
2016-11-28T00:41:14.699Z,19.7
2016-11-28T00:42:15.065Z,19.7
2016-11-28T00:43:15.430Z,19.7
2016-11-28T00:44:15.807Z,19.8
2016-11-28T00:45:16.180Z,19.7
2016-11-28T00:46:16.558Z,19.7
2016-11-28T00:47:16.934Z,19.6
2016-11-28T00:48:17.320Z,19.7
2016-11-28T00:49:17.688Z,19.6
2016-11-28T00:50:18.069Z,19.6
2016-11-28T00:51:18.460Z,19.6
2016-11-28T00:52:18.845Z,19.6
2016-11-28T00:53:19.229Z,19.5
2016-11-28T00:54:19.603Z,19.7
2016-11-28T00:55:19.975Z,19.6
2016-11-28T00:56:20.339Z,19.6
2016-11-28T00:57:20.705Z,19.7
2016-11-28T00:58:21.071Z,19.8
2016-11-28T00:59:21.432Z,19.7
2016-11-28T01:00:21.813Z,19.8
2016-11-28T01:01:22.487Z,19.8
2016-11-28T01:02:22.864Z,19.7
2016-11-28T01:03:23.246Z,19.6
2016-11-28T01:04:23.633Z,19.6
2016-11-28T01:05:24.004Z,19.6
2016-11-28T01:06:24.393Z,19.6
2016-11-28T01:07:25.096Z,19.6
2016-11-28T01:08:25.472Z,19.6
2016-11-28T01:09:25.846Z,19.6
2016-11-28T01:10:26.218Z,19.6
2016-11-28T01:11:26.625Z,19.7
2016-11-28T01:12:26.993Z,19.7
2016-11-28T01:13:27.365Z,19.7
2016-11-28T01:14:27.737Z,19.8
2016-11-28T01:15:28.103Z,19.7
2016-11-28T01:16:28.472Z,19.7
2016-11-28T01:17:28.854Z,19.7
2016-11-28T01:18:29.238Z,19.6
2016-11-28T01:19:29.611Z,19.6
2016-11-28T01:20:29.974Z,19.6
2016-11-28T01:21:30.339Z,19.6
2016-11-28T01:22:30.707Z,19.5
2016-11-28T01:23:31.069Z,19.5
2016-11-28T01:24:31.443Z,19.6
2016-11-28T01:25:31.819Z,19.7
2016-11-28T01:26:32.194Z,19.7
2016-11-28T01:27:32.570Z,19.7
2016-11-28T01:28:32.933Z,19.7
2016-11-28T01:29:33.332Z,19.8
2016-11-28T01:30:33.695Z,19.6
2016-11-28T01:31:34.359Z,19.7
2016-11-28T01:32:34.739Z,19.6
2016-11-28T01:33:35.116Z,19.7
2016-11-28T01:34:35.480Z,19.7
2016-11-28T01:35:35.845Z,19.7
2016-11-28T01:36:36.329Z,19.6
2016-11-28T01:37:36.709Z,19.6
2016-11-28T01:38:37.092Z,19.7
2016-11-28T01:39:37.476Z,19.7
2016-11-28T01:40:37.842Z,19.8
2016-11-28T01:41:38.214Z,19.8
2016-11-28T01:42:38.583Z,19.7
2016-11-28T01:43:38.954Z,19.7
2016-11-28T01:44:39.332Z,19.6
2016-11-28T01:45:39.713Z,19.6
2016-11-28T01:46:40.089Z,19.6
2016-11-28T01:47:40.464Z,19.6
2016-11-28T01:48:40.836Z,19.6
2016-11-28T01:49:41.201Z,19.6
2016-11-28T01:50:41.568Z,19.6
2016-11-28T01:51:41.933Z,19.7
2016-11-28T01:52:42.312Z,19.7
2016-11-28T01:53:42.693Z,19.6
2016-11-28T01:54:43.070Z,19.7
2016-11-28T01:55:43.448Z,19.7
2016-11-28T01:56:43.812Z,19.7
2016-11-28T01:57:44.173Z,19.7
2016-11-28T01:58:44.543Z,19.7
2016-11-28T01:59:44.910Z,19.8
2016-11-28T02:00:45.285Z,19.6
2016-11-28T02:01:46.011Z,19.7
2016-11-28T02:02:46.394Z,19.6
2016-11-28T02:03:46.775Z,19.6
2016-11-28T02:04:47.144Z,19.7
2016-11-28T02:05:47.507Z,19.7
2016-11-28T02:06:47.987Z,19.7
2016-11-28T02:07:48.365Z,19.6
2016-11-28T02:08:48.732Z,19.6
2016-11-28T02:09:49.094Z,19.6
2016-11-28T02:10:49.458Z,19.7
2016-11-28T02:11:49.818Z,19.6
2016-11-28T02:12:50.184Z,19.6
2016-11-28T02:13:50.568Z,19.7
2016-11-28T02:14:50.945Z,19.7
2016-11-28T02:15:51.321Z,19.8
2016-11-28T02:16:51.691Z,19.7
2016-11-28T02:17:52.061Z,19.6
2016-11-28T02:18:52.424Z,19.6
2016-11-28T02:19:52.787Z,19.6
2016-11-28T02:20:53.165Z,19.7
2016-11-28T02:21:53.578Z,19.6
2016-11-28T02:22:53.953Z,19.6
2016-11-28T02:23:54.327Z,19.6
2016-11-28T02:24:54.691Z,19.6
2016-11-28T02:25:55.061Z,19.6
2016-11-28T02:26:55.429Z,19.7
2016-11-28T02:27:55.796Z,19.7
2016-11-28T02:28:56.175Z,19.7
2016-11-28T02:29:56.553Z,19.7
2016-11-28T02:30:56.939Z,19.7
2016-11-28T02:31:57.627Z,19.7
2016-11-28T02:32:57.995Z,19.7
2016-11-28T02:33:58.362Z,19.6
2016-11-28T02:34:58.736Z,19.6
2016-11-28T02:35:59.103Z,19.6
2016-11-28T02:36:59.579Z,19.5
2016-11-28T02:37:59.956Z,19.6
2016-11-28T02:39:00.318Z,19.6
2016-11-28T02:40:00.679Z,19.7
2016-11-28T02:41:01.065Z,19.7
2016-11-28T02:42:01.444Z,19.8
2016-11-28T02:43:01.822Z,19.8
2016-11-28T02:44:02.192Z,19.7
2016-11-28T02:45:02.561Z,19.7
2016-11-28T02:46:02.930Z,19.7
2016-11-28T02:47:03.296Z,19.6
2016-11-28T02:48:03.668Z,19.6
2016-11-28T02:49:04.050Z,19.6
2016-11-28T02:50:04.423Z,19.6
2016-11-28T02:51:04.802Z,19.6
2016-11-28T02:52:05.176Z,19.6
2016-11-28T02:53:05.548Z,19.6
2016-11-28T02:54:05.913Z,19.6
2016-11-28T02:55:06.279Z,19.7
2016-11-28T02:56:06.643Z,19.6
2016-11-28T02:57:07.017Z,19.6
2016-11-28T02:58:07.396Z,19.7
2016-11-28T02:59:07.777Z,19.7
2016-11-28T03:00:08.162Z,19.6
2016-11-28T03:01:08.528Z,19.7
2016-11-28T03:02:09.197Z,19.6
2016-11-28T03:03:09.558Z,19.5
2016-11-28T03:04:09.929Z,19.5
2016-11-28T03:05:10.298Z,19.6
2016-11-28T03:06:10.671Z,19.6
2016-11-28T03:07:11.145Z,19.6
2016-11-28T03:08:11.521Z,19.6
2016-11-28T03:09:11.889Z,19.6
2016-11-28T03:10:12.283Z,19.6
2016-11-28T03:11:12.666Z,19.6
2016-11-28T03:12:13.043Z,19.7
2016-11-28T03:13:13.403Z,19.7
2016-11-28T03:14:13.764Z,19.6
2016-11-28T03:15:14.127Z,19.6
2016-11-28T03:16:14.489Z,19.6
2016-11-28T03:17:14.866Z,19.6
2016-11-28T03:18:15.242Z,19.6
2016-11-28T03:19:15.620Z,19.6
2016-11-28T03:20:16.001Z,19.6
2016-11-28T03:21:16.374Z,19.5
2016-11-28T03:22:16.741Z,19.5
2016-11-28T03:23:17.106Z,19.6
2016-11-28T03:24:17.466Z,19.5
2016-11-28T03:25:17.847Z,19.6
2016-11-28T03:26:18.224Z,19.6
2016-11-28T03:27:18.606Z,19.7
2016-11-28T03:28:18.983Z,19.6
2016-11-28T03:29:19.354Z,19.6
2016-11-28T03:30:19.722Z,19.6
2016-11-28T03:31:20.081Z,19.6
2016-11-28T03:32:20.741Z,19.6
2016-11-28T03:33:21.115Z,19.7
2016-11-28T03:34:21.532Z,19.6
2016-11-28T03:35:21.902Z,19.5
2016-11-28T03:36:22.276Z,19.6
2016-11-28T03:37:22.743Z,19.5
2016-11-28T03:38:23.110Z,19.5
2016-11-28T03:39:23.478Z,19.5
2016-11-28T03:40:23.846Z,19.6
2016-11-28T03:41:24.225Z,19.6
2016-11-28T03:42:24.596Z,19.7
2016-11-28T03:43:24.959Z,19.6
2016-11-28T03:44:25.322Z,19.6
2016-11-28T03:45:25.702Z,19.6
2016-11-28T03:46:26.081Z,19.7
2016-11-28T03:47:26.455Z,19.7
2016-11-28T03:48:26.831Z,19.6
2016-11-28T03:49:27.196Z,19.5
2016-11-28T03:50:27.563Z,19.5
2016-11-28T03:51:27.930Z,19.5
2016-11-28T03:52:28.309Z,19.5
2016-11-28T03:53:28.687Z,19.6
2016-11-28T03:54:29.055Z,19.5
2016-11-28T03:55:29.431Z,19.6
2016-11-28T03:56:29.806Z,19.6
2016-11-28T03:57:30.175Z,19.7
2016-11-28T03:58:30.537Z,19.7
2016-11-28T03:59:30.901Z,19.5
2016-11-28T04:00:31.272Z,19.7
2016-11-28T04:01:31.680Z,19.6
2016-11-28T04:02:32.362Z,19.6
2016-11-28T04:03:32.742Z,19.5
2016-11-28T04:04:33.115Z,19.5
2016-11-28T04:05:33.473Z,19.5
2016-11-28T04:06:33.839Z,19.5
2016-11-28T04:07:34.205Z,19.6
2016-11-28T04:08:34.570Z,19.5
2016-11-28T04:09:34.949Z,19.6
2016-11-28T04:10:35.327Z,19.6
2016-11-28T04:11:35.699Z,19.6
2016-11-28T04:12:36.076Z,19.6
2016-11-28T04:13:36.448Z,19.6
2016-11-28T04:14:36.815Z,19.6
2016-11-28T04:15:37.198Z,19.5
2016-11-28T04:16:37.574Z,19.6
2016-11-28T04:17:37.949Z,19.6
2016-11-28T04:18:38.314Z,19.6
2016-11-28T04:19:38.678Z,19.6
2016-11-28T04:20:39.041Z,19.8
2016-11-28T04:21:39.418Z,19.7
2016-11-28T04:22:39.798Z,19.6
2016-11-28T04:23:40.183Z,19.7
2016-11-28T04:24:40.557Z,19.6
2016-11-28T04:25:40.920Z,19.6
2016-11-28T04:26:41.282Z,19.6
2016-11-28T04:27:41.644Z,19.6
2016-11-28T04:28:42.012Z,19.6
2016-11-28T04:29:42.385Z,19.6
2016-11-28T04:30:42.764Z,19.6
2016-11-28T04:31:43.145Z,19.6
2016-11-28T04:32:43.821Z,19.5
2016-11-28T04:33:44.188Z,19.5
2016-11-28T04:34:44.548Z,19.5
2016-11-28T04:35:44.918Z,19.5
2016-11-28T04:36:45.288Z,19.6
2016-11-28T04:37:45.667Z,19.6
2016-11-28T04:38:46.048Z,19.6
2016-11-28T04:39:46.425Z,19.7
2016-11-28T04:40:46.806Z,19.7
2016-11-28T04:41:47.167Z,19.6
2016-11-28T04:42:47.533Z,19.6
2016-11-28T04:43:47.900Z,19.6
2016-11-28T04:44:48.268Z,19.6
2016-11-28T04:45:48.646Z,19.5
2016-11-28T04:46:49.028Z,19.7
2016-11-28T04:47:49.395Z,19.5
2016-11-28T04:48:49.760Z,19.7
2016-11-28T04:49:50.141Z,19.7
2016-11-28T04:50:50.517Z,19.8
2016-11-28T04:51:50.902Z,19.8
2016-11-28T04:52:51.280Z,19.8
2016-11-28T04:53:51.648Z,19.8
2016-11-28T04:54:52.010Z,19.8
2016-11-28T04:55:52.376Z,19.9
2016-11-28T04:56:52.737Z,19.9
2016-11-28T04:57:53.121Z,19.9
2016-11-28T04:58:53.499Z,19.9
2016-11-28T04:59:53.890Z,20
2016-11-28T05:00:54.267Z,19.9
2016-11-28T05:01:54.640Z,20
2016-11-28T05:02:55.007Z,19.9
2016-11-28T05:03:55.369Z,19.9
2016-11-28T05:04:55.738Z,20
2016-11-28T05:05:56.111Z,19.9
2016-11-28T05:06:56.489Z,20
2016-11-28T05:07:56.973Z,20
2016-11-28T05:08:57.352Z,19.9
2016-11-28T05:09:57.730Z,19.9
2016-11-28T05:10:58.096Z,19.9
2016-11-28T05:11:58.461Z,20
2016-11-28T05:12:58.825Z,20
2016-11-28T05:13:59.200Z,20
2016-11-28T05:14:59.571Z,20
2016-11-28T05:15:59.951Z,20
2016-11-28T05:17:00.328Z,20
2016-11-28T05:18:00.696Z,20
2016-11-28T05:19:01.397Z,20
2016-11-28T05:20:01.766Z,20
2016-11-28T05:21:02.131Z,20
2016-11-28T05:22:02.507Z,20
2016-11-28T05:23:02.883Z,20
2016-11-28T05:24:03.262Z,20
2016-11-28T05:25:03.634Z,20
2016-11-28T05:26:03.997Z,20
2016-11-28T05:27:04.359Z,20.1
2016-11-28T05:28:04.723Z,20
2016-11-28T05:29:05.089Z,20
2016-11-28T05:30:05.464Z,20
2016-11-28T05:31:05.845Z,20
2016-11-28T05:32:06.224Z,20
2016-11-28T05:33:06.898Z,20
2016-11-28T05:34:07.272Z,20
2016-11-28T05:35:07.633Z,20
2016-11-28T05:36:07.996Z,20
2016-11-28T05:37:08.359Z,20.1
2016-11-28T05:38:08.733Z,20.1
2016-11-28T05:39:09.110Z,20.1
2016-11-28T05:40:09.488Z,20.2
2016-11-28T05:41:09.864Z,20
2016-11-28T05:42:10.222Z,20.1
2016-11-28T05:43:10.586Z,19.9
2016-11-28T05:44:10.951Z,20
2016-11-28T05:45:11.315Z,20
2016-11-28T05:46:11.689Z,19.9
2016-11-28T05:47:12.071Z,20
2016-11-28T12:32:54.597Z,20.2
2016-11-28T12:33:55.617Z,19.2
2016-11-28T12:34:56.646Z,19.2
2016-11-28T12:35:57.675Z,19.1
2016-11-28T12:36:58.718Z,17.6
2016-11-28T12:37:59.748Z,17
2016-11-28T12:39:00.776Z,14.5
2016-11-28T12:40:01.794Z,14.2
2016-11-28T12:41:02.834Z,15.1
2016-11-28T12:42:03.874Z,16.6
2016-11-28T12:43:04.578Z,17.5
2016-11-28T12:44:05.275Z,18.3
2016-11-28T12:45:06.310Z,18.9
2016-11-28T12:46:06.987Z,19.3
2016-11-28T12:47:07.668Z,19.6
2016-11-28T12:48:08.696Z,19.7
2016-11-28T12:49:09.725Z,19.8
2016-11-28T12:50:10.751Z,19.9
2016-11-28T12:51:11.774Z,20
2016-11-28T12:52:12.443Z,20.6
2016-11-28T12:53:13.489Z,22.1
2016-11-28T12:54:14.802Z,22.4
2016-11-28T12:55:15.831Z,22
2016-11-28T12:56:16.517Z,21.6
2016-11-28T12:57:17.548Z,21.4
2016-11-28T12:58:18.606Z,21.5
2016-11-28T12:59:19.637Z,21.5
2016-11-28T13:00:20.664Z,21.4
2016-11-28T13:01:21.714Z,21.6
2016-11-28T13:02:22.754Z,21.6
2016-11-28T13:03:23.789Z,21.5
2016-11-28T13:04:24.834Z,21.5
2016-11-28T13:05:25.867Z,21.7
2016-11-28T13:06:26.536Z,21.7
2016-11-28T13:07:27.569Z,21.8
2016-11-28T13:08:28.604Z,21.8
2016-11-28T13:09:29.640Z,21.9
2016-11-28T13:10:30.668Z,22
2016-11-28T13:11:31.701Z,21.9
2016-11-28T13:12:32.736Z,21.9
2016-11-28T13:13:33.414Z,22
2016-11-28T13:14:34.453Z,22
2016-11-28T13:15:35.488Z,22.1
2016-11-28T13:16:36.527Z,22
2016-11-28T13:17:37.557Z,22
2016-11-28T13:18:38.585Z,21.9
2016-11-28T13:19:39.302Z,21.9
2016-11-28T13:20:39.663Z,21.9
2016-11-28T13:21:40.339Z,22
2016-11-28T13:22:41.040Z,22.2
2016-11-28T13:23:42.074Z,22
2016-11-28T13:24:43.206Z,22
2016-11-28T13:25:44.256Z,21.9
2016-11-28T13:26:45.210Z,21.9
2016-11-28T13:27:46.246Z,22.1
2016-11-28T13:28:47.300Z,22.2
2016-11-28T13:29:48.352Z,22.2
2016-11-28T13:30:48.706Z,22.2
2016-11-28T13:31:49.408Z,22.1
2016-11-28T13:32:50.445Z,22.3
2016-11-28T13:33:51.133Z,22.5
2016-11-28T13:34:52.170Z,22.2
2016-11-28T13:35:53.207Z,22.3
2016-11-28T13:36:54.246Z,22.4
2016-11-28T13:37:55.284Z,22.4
2016-11-28T13:38:55.988Z,22.4
2016-11-28T13:39:57.028Z,22.4
2016-11-28T13:40:57.738Z,22.5
2016-11-28T13:41:58.439Z,22.3
2016-11-28T13:42:59.469Z,22.6
2016-11-28T13:44:00.510Z,22.6
2016-11-28T16:27:49.593Z,-38.7
2016-11-28T16:28:49.952Z,-38.7
2016-11-28T16:29:50.333Z,-38.7
2016-11-28T16:30:50.712Z,-38.7
2016-11-28T16:31:51.090Z,-38.7
2016-11-28T16:32:51.463Z,-38.7
2016-11-28T16:33:51.833Z,-38.7
2016-11-28T16:34:52.199Z,-38.7
2016-11-28T16:35:52.573Z,-38.7
2016-11-28T16:36:52.936Z,-38.7
2016-11-28T16:37:53.314Z,-38.7
2016-11-28T16:38:53.687Z,-38.7
2016-11-28T16:39:54.057Z,-38.7
2016-11-28T16:40:54.431Z,-38.7
2016-11-28T16:41:54.797Z,-38.7
2016-11-28T16:42:55.166Z,-38.7
2016-11-28T16:43:55.531Z,-38.7
2016-11-28T16:44:55.897Z,-38.7
2016-11-28T16:45:56.275Z,-38.7
2016-11-28T16:46:56.654Z,-38.7
2016-11-28T16:47:57.035Z,-38.7
2016-11-28T16:48:57.426Z,-38.7
2016-11-28T16:49:57.797Z,-38.7
2016-11-28T16:50:58.162Z,-38.7
2016-11-28T16:51:58.528Z,-38.7
2016-11-28T16:52:58.892Z,-38.7
2016-11-28T16:53:59.268Z,-38.7
2016-11-28T16:54:59.642Z,-38.7
2016-11-28T16:56:00.017Z,-38.7
2016-11-28T16:57:00.397Z,-38.7
2016-11-28T16:58:00.764Z,-38.7
2016-11-28T16:59:01.146Z,-38.7
2016-11-28T17:00:01.528Z,-38.7
2016-11-28T17:01:01.921Z,-38.7
2016-11-28T17:02:02.297Z,-38.7
2016-11-28T17:03:02.663Z,-38.7
2016-11-28T17:04:03.028Z,-38.7
2016-11-28T17:05:03.396Z,-38.7
2016-11-28T17:06:03.775Z,-38.7
2016-11-28T17:07:04.155Z,-38.7
2016-11-28T17:08:04.532Z,-38.7
2016-11-28T17:09:04.916Z,-38.7
2016-11-28T17:10:05.284Z,-38.7
2016-11-28T17:11:05.652Z,-38.7
2016-11-28T17:12:06.027Z,-38.7
2016-11-28T17:13:06.398Z,-38.7
2016-11-28T17:14:06.780Z,-38.7
2016-11-28T17:15:07.153Z,-38.7
2016-11-28T17:16:07.531Z,-38.7
2016-11-28T17:17:07.907Z,-38.7
2016-11-28T17:18:08.272Z,-38.7
2016-11-28T17:19:08.638Z,-38.7
2016-11-28T17:20:09.004Z,-38.7
2016-11-28T17:21:09.371Z,-38.7
2016-11-28T17:22:09.757Z,-38.7
2016-11-28T17:23:10.132Z,-38.7
2016-11-28T17:24:10.519Z,-38.7
2016-11-28T17:25:10.904Z,-38.7
2016-11-28T17:26:11.269Z,-38.7
2016-11-28T17:27:11.635Z,-38.7
2016-11-28T17:28:12.009Z,-38.7
2016-11-28T17:29:12.380Z,-38.7
2016-11-28T17:30:12.769Z,-38.7
2016-11-28T17:31:13.142Z,-38.7
2016-11-28T17:32:13.514Z,-38.7
2016-11-28T17:33:13.882Z,-38.7
2016-11-28T17:34:14.264Z,-38.7
2016-11-28T17:35:14.643Z,-38.7
2016-11-28T17:36:15.023Z,-38.7
2016-11-28T17:37:15.400Z,-38.7
2016-11-28T17:38:15.767Z,-38.7
2016-11-28T17:39:16.133Z,-38.7
2016-11-28T17:40:16.498Z,-38.7
2016-11-28T17:41:16.867Z,-38.7
2016-11-28T17:42:17.243Z,-38.7
2016-11-28T17:43:17.612Z,-38.7
2016-11-28T17:44:17.995Z,-38.7
2016-11-28T17:45:18.374Z,-38.7
2016-11-28T17:46:18.740Z,-38.7
2016-11-28T17:47:19.111Z,-38.7
2016-11-28T17:48:19.490Z,-38.7
2016-11-28T17:49:19.860Z,-38.7
2016-11-28T17:50:20.241Z,-38.7
2016-11-28T17:51:20.615Z,-38.7
2016-11-28T17:52:20.988Z,-38.7
2016-11-28T17:53:21.365Z,-38.7
2016-11-28T17:54:21.725Z,-38.7
2016-11-28T17:55:22.086Z,-38.7
2016-11-28T17:56:22.459Z,-38.7
2016-11-28T17:57:22.827Z,-38.7
2016-11-28T17:58:23.206Z,-38.7
2016-11-28T17:59:23.585Z,-38.7
2016-11-28T18:00:23.959Z,-38.7
2016-11-28T18:01:24.370Z,-38.7
2016-11-28T18:02:24.732Z,-38.7
2016-11-28T18:03:25.101Z,-38.7
2016-11-28T18:04:25.475Z,-38.7
2016-11-28T18:05:25.854Z,-38.7
2016-11-28T18:06:26.228Z,-38.7
2016-11-28T18:07:26.594Z,-38.7
2016-11-28T18:08:26.966Z,-38.7
2016-11-28T18:09:27.328Z,-38.7
2016-11-28T18:10:27.709Z,-38.7
2016-11-28T18:11:28.086Z,-38.7
2016-11-28T18:12:28.460Z,-38.7
2016-11-28T18:13:28.838Z,-38.7
2016-11-28T18:14:29.207Z,-38.7
2016-11-28T18:15:29.578Z,-38.7
2016-11-28T18:16:29.948Z,-38.7
2016-11-28T18:17:30.319Z,-38.7
2016-11-28T18:18:30.706Z,-38.7
2016-11-28T18:19:31.082Z,-38.7
2016-11-28T18:20:31.462Z,-38.7
2016-11-28T18:21:31.846Z,-38.7
2016-11-28T18:22:32.215Z,-38.7
2016-11-28T18:23:32.580Z,-38.7
2016-11-28T18:24:32.951Z,-38.7
2016-11-28T18:25:33.312Z,-38.7
2016-11-28T18:26:33.690Z,-38.7
2016-11-28T18:27:34.068Z,-38.7
2016-11-28T18:28:34.444Z,-38.7
2016-11-28T18:29:34.825Z,-38.7
2016-11-28T18:30:35.190Z,-38.7
2016-11-28T18:31:35.558Z,-38.7
2016-11-28T18:32:35.920Z,-38.7
2016-11-28T18:33:36.283Z,-38.7
2016-11-28T18:34:36.661Z,-38.7
2016-11-28T18:35:37.034Z,-38.7
2016-11-28T18:36:37.412Z,-38.7
2016-11-28T18:37:37.800Z,-38.7
2016-11-28T18:38:38.166Z,-38.7
2016-11-28T18:39:38.525Z,-38.7
2016-11-28T18:40:38.891Z,-38.7
2016-11-28T18:41:39.262Z,-38.7
2016-11-28T18:42:39.746Z,-38.7
2016-11-28T18:43:40.125Z,-38.7
2016-11-28T18:44:40.502Z,-38.7
2016-11-28T18:45:40.885Z,-38.7
2016-11-28T18:46:41.257Z,-38.7
2016-11-28T18:47:41.624Z,-38.7
2016-11-28T18:48:41.992Z,-38.7
2016-11-28T18:49:42.357Z,-38.7
2016-11-28T18:50:42.731Z,-38.7
2016-11-28T18:51:43.113Z,-38.7
2016-11-28T18:52:43.484Z,-38.7
2016-11-28T18:53:43.861Z,-38.7
2016-11-28T18:54:44.229Z,-38.7
2016-11-28T18:55:44.592Z,-38.7
2016-11-28T18:56:44.958Z,-38.7
2016-11-28T18:57:45.324Z,-38.7
2016-11-28T18:58:45.701Z,-38.7
2016-11-28T18:59:46.080Z,-38.7
2016-11-28T19:00:46.457Z,-38.7
2016-11-28T19:01:46.837Z,-38.7
2016-11-28T19:02:47.207Z,-38.7
2016-11-28T19:03:47.572Z,-38.7
2016-11-28T19:04:47.934Z,-38.7
2016-11-28T19:05:48.296Z,-38.7
2016-11-28T19:06:48.670Z,-38.7
2016-11-28T19:07:49.044Z,-38.7
2016-11-28T19:08:49.413Z,-38.7
2016-11-28T19:09:49.782Z,-38.7
2016-11-28T19:10:50.160Z,-38.7
2016-11-28T19:11:50.538Z,-38.7
2016-11-28T19:12:50.920Z,-38.7
2016-11-28T19:13:51.299Z,-38.7
2016-11-28T19:14:51.673Z,-38.7
2016-11-28T19:15:52.046Z,-38.7
2016-11-28T19:16:52.414Z,-38.7
2016-11-28T19:17:52.780Z,-38.7
2016-11-28T19:18:53.150Z,-38.7
2016-11-28T19:19:53.526Z,-38.7
2016-11-28T19:20:53.929Z,-38.7
2016-11-28T19:21:54.309Z,-38.7
2016-11-28T19:22:54.677Z,-38.7
2016-11-28T19:23:55.045Z,-38.7
2016-11-28T19:24:55.415Z,-38.7
2016-11-28T19:25:55.792Z,-38.7
2016-11-28T19:26:56.180Z,-38.7
2016-11-28T19:27:56.561Z,-38.7
2016-11-28T19:28:56.943Z,-38.7
2016-11-28T19:29:57.324Z,-38.7
2016-11-28T19:30:57.684Z,-38.7
2016-11-28T19:31:58.052Z,-38.7
2016-11-28T19:32:58.425Z,-38.7
2016-11-28T19:33:58.800Z,-38.7
2016-11-28T19:34:59.171Z,-38.7
2016-11-28T19:35:59.549Z,-38.7
2016-11-28T19:36:59.920Z,-38.7
2016-11-28T19:38:00.304Z,-38.7
2016-11-28T19:39:00.667Z,-38.7
2016-11-28T19:40:01.034Z,-38.7
2016-11-28T19:41:01.408Z,-38.7
2016-11-28T19:42:01.792Z,-38.7
2016-11-28T19:43:02.168Z,-38.7
2016-11-28T19:44:02.532Z,-38.7
2016-11-28T19:45:02.898Z,-38.7
2016-11-28T19:46:03.265Z,-38.7
2016-11-28T19:47:03.647Z,-38.7
2016-11-28T19:48:04.032Z,-38.7
2016-11-28T19:49:04.413Z,-38.7
2016-11-28T19:50:04.794Z,-38.7
2016-11-28T19:51:05.161Z,-38.7
2016-11-28T19:52:05.528Z,-38.7
2016-11-28T19:53:05.894Z,-38.7
2016-11-28T19:54:06.269Z,-38.7
2016-11-28T19:55:06.660Z,-38.7
2016-11-28T19:56:07.035Z,-38.7
2016-11-28T19:57:07.415Z,-38.7
2016-11-28T19:58:07.799Z,-38.7
2016-11-28T19:59:08.164Z,-38.7
2016-11-28T20:00:08.536Z,-38.7
2016-11-28T20:01:08.900Z,-38.7
2016-11-28T20:02:09.305Z,-38.7
2016-11-28T20:03:26.535Z,21.3
2016-11-28T20:04:26.906Z,20.5
2016-11-28T20:05:27.281Z,19.9
2016-11-28T20:06:27.655Z,19.8
2016-11-28T20:07:28.032Z,19.6
2016-11-28T20:08:28.403Z,19.6
2016-11-28T20:09:28.771Z,19.6
2016-11-28T20:10:29.140Z,19.7
2016-11-28T20:11:29.506Z,19.8
2016-11-28T20:12:29.916Z,19.7
2016-11-28T20:13:30.302Z,19.6
2016-11-28T20:14:30.682Z,19.6
2016-11-28T20:15:31.064Z,19.7
2016-11-28T20:16:31.453Z,19.6
2016-11-28T20:17:32.154Z,19.6
2016-11-28T20:18:32.519Z,19.6
2016-11-28T20:19:32.894Z,19.7
2016-11-28T20:20:33.258Z,19.7
2016-11-28T20:21:33.636Z,19.7
2016-11-28T20:22:34.008Z,19.7
2016-11-28T20:23:34.388Z,19.7
2016-11-28T20:24:34.769Z,19.6
2016-11-28T20:25:35.134Z,19.6
2016-11-28T20:26:35.500Z,19.6
2016-11-28T20:27:35.866Z,19.7
2016-11-28T20:28:36.231Z,19.7
2016-11-28T20:29:36.607Z,19.8
2016-11-28T20:30:36.986Z,19.9
2016-11-28T20:31:37.367Z,19.9
2016-11-28T20:32:37.747Z,19.8
2016-11-28T20:33:38.111Z,19.7
2016-11-28T20:34:38.476Z,19.8
2016-11-28T20:35:38.854Z,19.7
2016-11-28T20:36:39.224Z,19.7
2016-11-28T20:37:39.589Z,19.8
2016-11-28T20:38:39.990Z,19.6
2016-11-28T20:39:40.353Z,19.7
2016-11-28T20:40:40.719Z,19.8
2016-11-28T20:41:41.107Z,19.8
2016-11-28T20:42:41.515Z,19.8
2016-11-28T20:43:41.887Z,19.7
2016-11-28T20:44:42.304Z,19.8
2016-11-28T20:45:42.675Z,19.8
2016-11-28T20:46:43.035Z,19.8
2016-11-28T20:47:43.404Z,19.8
2016-11-28T20:48:43.769Z,19.9
2016-11-28T20:49:44.145Z,19.9
2016-11-28T20:50:44.518Z,20
2016-11-28T20:51:44.894Z,20
2016-11-28T20:52:45.273Z,20
2016-11-28T20:53:45.636Z,20
2016-11-28T20:54:46.002Z,19.9
2016-11-28T20:55:46.374Z,19.9
2016-11-28T20:56:46.743Z,19.9
2016-11-28T20:57:47.119Z,19.9
2016-11-28T20:58:47.493Z,20
2016-11-28T20:59:47.869Z,20
2016-11-28T21:00:48.249Z,20
2016-11-28T21:01:48.614Z,19.9
2016-11-28T21:02:48.981Z,20
2016-11-28T21:03:49.352Z,19.8
2016-11-28T21:04:49.716Z,19.9
2016-11-28T21:05:50.090Z,19.8
2016-11-28T21:06:50.465Z,19.8
2016-11-28T21:07:50.828Z,19.9
2016-11-28T21:08:51.196Z,19.9
2016-11-28T21:09:51.572Z,19.9
2016-11-28T21:10:51.953Z,20
2016-11-28T21:11:52.336Z,19.9
2016-11-28T21:12:52.708Z,19.9
2016-11-28T21:13:53.080Z,19.9
2016-11-28T21:14:53.450Z,20
2016-11-28T21:15:53.813Z,19.9
2016-11-28T21:16:54.178Z,19.9
2016-11-28T21:17:54.556Z,19.9
2016-11-28T21:18:54.936Z,20
2016-11-28T21:19:55.307Z,19.9
2016-11-28T21:20:55.682Z,19.9
2016-11-28T21:21:56.054Z,20
2016-11-28T21:22:56.422Z,19.9
2016-11-28T21:23:56.794Z,19.9
2016-11-28T21:24:57.160Z,19.9
2016-11-28T21:25:57.538Z,19.9
2016-11-28T21:26:57.967Z,20
2016-11-28T21:27:58.373Z,20
2016-11-28T21:28:58.750Z,20
2016-11-28T21:29:59.114Z,19.9
2016-11-28T21:30:59.485Z,19.8
2016-11-28T21:31:59.853Z,19.9
2016-11-28T21:33:00.218Z,19.5
2016-11-28T21:34:00.595Z,18.1
2016-11-28T21:35:00.966Z,17.3
2016-11-28T21:36:01.339Z,16.8
2016-11-28T21:37:01.718Z,16.2
2016-11-28T21:38:02.080Z,16
2016-11-28T21:39:02.447Z,15.8
2016-11-28T21:40:02.824Z,15.4
2016-11-28T21:41:03.200Z,15.3
2016-11-28T21:42:03.559Z,15
2016-11-28T21:43:03.920Z,15
2016-11-28T21:44:04.281Z,14.8
2016-11-28T21:45:04.649Z,14.7
2016-11-28T21:46:05.023Z,14.5
2016-11-28T21:47:05.390Z,14.6
2016-11-28T21:48:05.756Z,14.6
2016-11-28T21:49:06.129Z,14.2
2016-11-28T21:50:06.486Z,13.9
2016-11-28T21:51:06.851Z,14.2
2016-11-28T21:52:07.217Z,14
2016-11-28T21:53:07.583Z,14
2016-11-28T21:54:07.956Z,14.7
2016-11-28T21:55:08.325Z,15.9
2016-11-28T21:56:08.692Z,16.4
2016-11-28T21:57:09.070Z,16.9
2016-11-28T21:58:09.433Z,17.4
2016-11-28T21:59:09.794Z,17.6
2016-11-28T22:00:10.161Z,17.8
2016-11-28T22:01:10.523Z,17.8
2016-11-28T22:02:10.896Z,18
2016-11-28T22:03:11.268Z,18
2016-11-28T22:04:11.643Z,18.1
2016-11-28T22:05:12.022Z,18.1
2016-11-28T22:06:12.392Z,18.2
2016-11-28T22:07:12.755Z,18.1
2016-11-28T22:08:13.117Z,18.3
2016-11-28T22:09:13.479Z,18.3
2016-11-28T22:10:13.850Z,18.2
2016-11-28T22:11:14.228Z,18.4
2016-11-28T22:12:14.611Z,18.3
2016-11-28T22:13:14.988Z,18.2
2016-11-28T22:14:15.348Z,18.4
2016-11-28T22:15:15.708Z,18.3
2016-11-28T22:16:16.067Z,18.3
2016-11-28T22:17:16.435Z,18.3
2016-11-28T22:18:16.816Z,18.4
2016-11-28T22:19:17.190Z,18.4
2016-11-28T22:20:17.569Z,18.5
2016-11-28T22:21:17.943Z,18.5
2016-11-28T22:22:18.313Z,18.4
2016-11-28T22:23:18.715Z,18.6
2016-11-28T22:24:19.083Z,18.4
2016-11-28T22:25:19.445Z,18.5
2016-11-28T22:26:19.818Z,18.5
2016-11-28T22:27:20.193Z,18.5
2016-11-28T22:28:20.575Z,18.4
2016-11-28T22:29:20.953Z,18.4
2016-11-28T22:30:21.325Z,18.6
2016-11-28T22:31:21.690Z,18.6
2016-11-28T22:32:22.057Z,18.6
2016-11-28T22:33:22.423Z,18.5
2016-11-28T22:34:22.826Z,18.7
2016-11-28T22:35:23.199Z,18.6
2016-11-28T22:36:23.570Z,18.6
2016-11-28T22:37:23.943Z,18.5
2016-11-28T22:38:24.312Z,18.5
2016-11-28T22:39:24.674Z,18.7
2016-11-28T22:40:25.042Z,18.6
2016-11-28T22:41:25.401Z,18.6
2016-11-28T22:42:25.772Z,18.6
2016-11-28T22:43:26.146Z,18.6
2016-11-28T22:44:26.610Z,18.7
2016-11-28T22:45:26.973Z,18.6
2016-11-28T22:46:27.349Z,18.6
2016-11-28T22:47:27.721Z,18.6
2016-11-28T22:48:28.100Z,18.6
2016-11-28T22:49:28.479Z,18.5